Bokada Airport


Codes: FZFG/
Name: Bokada Airport
City: Bokada
Country: Congo [DRC]
Elevation: 1647 ft.

Photos at Bokada Airport


   Photos courtesy of SpottingLog. You can add your own sightings and photos by signing up for a free trial today.



No photos found.

Weather at Bokada Airport


Time (UTC)DescriptionTempratureWindCloud coverageVisibilityPressureHumidity
16-Jun-2024 03:00Overcast Clouds21°C2 mph, W98%10000m1012hPa94%
16-Jun-2024 06:00Overcast Clouds22°C2 mph, SW99%10000m1013hPa90%
16-Jun-2024 09:00Light Rain29°C2 mph, W100%10000m1012hPa60%
16-Jun-2024 12:00Light Rain31°C2 mph, S100%10000m1009hPa54%
16-Jun-2024 15:00Light Rain25°C4 mph, E99%10000m1009hPa83%
16-Jun-2024 18:00Light Rain22°C2 mph, S87%10000m1011hPa93%
16-Jun-2024 21:00Light Rain21°C4 mph, SW80%10000m1012hPa96%
17-Jun-2024 00:00Overcast Clouds21°C2 mph, SW87%10000m1012hPa97%
17-Jun-2024 03:00Overcast Clouds21°C2 mph, SW98%10000m1013hPa97%
17-Jun-2024 06:00Overcast Clouds22°C2 mph, W95%10000m1014hPa93%
17-Jun-2024 09:00Overcast Clouds26°C2 mph, W97%10000m1014hPa75%
17-Jun-2024 12:00Overcast Clouds30°C4 mph, SW97%10000m1011hPa54%
17-Jun-2024 15:00Broken Clouds31°C4 mph, SW69%10000m1009hPa49%
17-Jun-2024 18:00Scattered Clouds25°C4 mph, S42%10000m1010hPa72%
17-Jun-2024 21:00Few Clouds22°C2 mph, S15%10000m1012hPa86%
18-Jun-2024 00:00Light Rain22°C2 mph, S25%10000m1012hPa91%
18-Jun-2024 03:00Broken Clouds21°C2 mph, W75%10000m1012hPa94%
18-Jun-2024 06:00Broken Clouds23°C2 mph, SW59%10000m1013hPa84%
18-Jun-2024 09:00Scattered Clouds31°C2 mph, SW37%10000m1013hPa51%
18-Jun-2024 12:00Scattered Clouds35°C2 mph, S31%10000m1010hPa37%
18-Jun-2024 15:00Broken Clouds33°C2 mph, SW55%10000m1008hPa40%
18-Jun-2024 18:00Broken Clouds27°C2 mph, NE69%10000m1009hPa59%
18-Jun-2024 21:00Few Clouds24°C2 mph, NE19%10000m1010hPa73%
19-Jun-2024 00:00Scattered Clouds23°C2 mph, SW32%10000m1010hPa76%
19-Jun-2024 03:00Broken Clouds22°C2 mph, W70%10000m1010hPa78%
19-Jun-2024 06:00Broken Clouds25°C0 mph, SW66%10000m1012hPa69%
19-Jun-2024 09:00Scattered Clouds32°C2 mph, SW36%10000m1012hPa47%
19-Jun-2024 12:00Scattered Clouds36°C2 mph, SW48%10000m1008hPa36%
19-Jun-2024 15:00Overcast Clouds32°C2 mph, W94%10000m1007hPa45%
19-Jun-2024 18:00Light Rain26°C2 mph, N78%10000m1009hPa71%
19-Jun-2024 21:00Light Rain23°C2 mph, NW65%10000m1011hPa83%
20-Jun-2024 00:00Light Rain22°C2 mph, E82%10000m1011hPa90%
20-Jun-2024 03:00Overcast Clouds22°C2 mph, W100%10000m1011hPa92%
20-Jun-2024 06:00Broken Clouds24°C0 mph, W80%10000m1013hPa87%
20-Jun-2024 09:00Scattered Clouds33°C2 mph, E35%10000m1012hPa49%
20-Jun-2024 12:00Broken Clouds36°C2 mph, SE60%10000m1009hPa36%
20-Jun-2024 15:00Broken Clouds34°C2 mph, E72%10000m1006hPa38%
20-Jun-2024 18:00Light Rain27°C4 mph, S79%10000m1008hPa65%
20-Jun-2024 21:00Broken Clouds24°C2 mph, E70%10000m1010hPa79%
21-Jun-2024 00:00Light Rain22°C2 mph, SW79%10000m1011hPa88%